Terminal Aerodrome Forecast
Issued by NWS Cleveland, OH

Home | Current Version | Previous Version | Graphics & Text | Print | Product List | Glossary On
Versions: 1 2 3 4 5 6 7 8 9 10 11 12 13 14 15
000
FTUS41 KCLE 131000 AAA
TAFMFD
TAF AMD
KMFD 131021Z 1310/1406 21010KT P6SM VCSH SCT060 BKN090
     FM131100 22012KT 6SM -SHRA BKN040
      TEMPO 1312/1314 23012G20KT 3SM -TSRA BR SCT025 OVC035CB
     FM131600 23012G20KT P6SM BKN035 OVC070
     FM132300 24007KT P6SM BKN035=

USA.gov is the U.S. government's official web portal to all federal, state and local government web resources and services.